Waterford, Connecticut
Current Conditions -  °F | °C
As of 6:56 PM on Saturday 25 Oct 2014 (Local Time) from KGON Reporting Station
Clear Clear  
Wind Chill: 59°   Ceiling: Unl
Heat Index: 59°   Visibility: 10mi
Dew Point: 48°   Wind: 9mph
Humidity: 67%   Direction: 260°W
Pressure: 29.62"   Gusts: NA
Location:  41.33°N, 72.12°W
Report Text: KGON 252256Z 26008KT 10SM CLR 15/09 A2962 RMK AO2 SLP031 T01500089
Loading
Personal Weather Stations






























Interactive Weather Map
Tropical Storm Tracking
New forecast layout! Learn more

10-Day Weather Forecast

Advertisements
Track Severe Weather on mobile